Time;durP1;ratioP1;P1;durP2;ratioP2;P2;SDS_P1;SDS_P2;PMS_P1;PMS_P2;Temp;Humidity;BMP_temperature;BMP_pressure;BME280_temperature;BME280_humidity;BME280_pressure;Samples;Min_cycle;Max_cycle;Signal;HPM_P1;HPM_P2
2024/04/15 00:01:34;;;;;;;3.30;1.13;;;;;;;12.24;54.41;101137.13;5454220;26;20732;-78
2024/04/15 00:04:00;;;;;;;1.90;0.83;;;;;;;12.40;56.47;101157.84;5451755;26;20770;-78
2024/04/15 00:06:28;;;;;;;3.10;0.90;;;;;;;12.60;59.46;101121.72;5452331;26;20237;-78
2024/04/15 00:08:53;;;;;;;1.17;0.63;;;;;;;12.67;60.07;101078.84;5452779;26;20264;-78
2024/04/15 00:11:21;;;;;;;3.33;1.00;;;;;;;12.73;59.45;101069.16;5453844;26;20226;-78
2024/04/15 00:13:47;;;;;;;2.43;0.87;;;;;;;12.79;58.58;101042.84;5453530;26;20256;-78
2024/04/15 00:16:17;;;;;;;1.53;0.70;;;;;;;12.78;60.49;101036.72;5451495;26;20240;-78
2024/04/15 00:18:43;;;;;;;3.00;0.80;;;;;;;12.78;58.66;101043.72;5454139;26;20229;-78
2024/04/15 00:21:11;;;;;;;2.60;0.70;;;;;;;12.78;60.46;101039.34;5454064;26;20280;-78
2024/04/15 00:23:37;;;;;;;4.30;0.80;;;;;;;12.77;61.38;100985.22;5454296;26;20269;-78
2024/04/15 00:26:05;;;;;;;2.63;1.00;;;;;;;12.80;61.65;100976.44;5454842;26;20625;-78
2024/04/15 00:28:30;;;;;;;6.40;0.63;;;;;;;12.78;60.25;100983.47;5462128;26;20225;-77
2024/04/15 00:30:58;;;;;;;3.50;1.03;;;;;;;12.77;60.78;100984.38;5461198;26;20285;-77
2024/04/15 00:33:26;;;;;;;2.83;0.73;;;;;;;12.76;61.67;100959.91;5461363;26;20274;-78
2024/04/15 00:35:55;;;;;;;2.23;0.70;;;;;;;12.78;62.80;100931.06;5459405;26;20230;-78
2024/04/15 00:38:20;;;;;;;1.77;0.80;;;;;;;12.81;63.05;100916.16;5453728;26;20240;-78
2024/04/15 00:40:48;;;;;;;2.43;1.00;;;;;;;12.78;63.15;100902.25;5454358;26;20233;-78
2024/04/15 00:43:14;;;;;;;2.90;0.70;;;;;;;12.75;63.63;100869.13;5454691;26;20226;-78
2024/04/15 00:45:42;;;;;;;4.13;1.10;;;;;;;12.78;64.13;100849.88;5452604;26;20237;-78
2024/04/15 00:48:12;;;;;;;1.90;0.70;;;;;;;12.76;64.66;100821.06;5451954;26;20234;-78
2024/04/15 00:50:45;;;;;;;2.50;0.70;;;;;;;12.70;64.05;100805.50;5450741;26;20321;-78
2024/04/15 00:53:14;;;;;;;2.40;0.80;;;;;;;12.42;61.55;100827.03;5451317;26;20222;-78
2024/04/15 00:55:43;;;;;;;2.03;0.70;;;;;;;12.59;60.97;100849.41;5451869;26;20289;-78
2024/04/15 00:58:09;;;;;;;3.17;0.90;;;;;;;12.54;61.44;100867.81;5452603;26;20359;-78
2024/04/15 01:00:37;;;;;;;2.63;1.07;;;;;;;12.59;60.02;100873.84;5453434;26;20723;-78
2024/04/15 01:03:05;;;;;;;4.80;1.07;;;;;;;12.57;60.45;100890.47;5453469;26;20268;-78
2024/04/15 01:05:34;;;;;;;4.00;1.10;;;;;;;12.38;60.41;100908.28;5450451;26;20263;-77
2024/04/15 01:08:03;;;;;;;2.30;1.03;;;;;;;12.27;60.72;100913.72;5450359;26;20269;-77
2024/04/15 01:10:31;;;;;;;3.77;1.00;;;;;;;12.30;61.68;100898.81;5443810;26;20288;-78
2024/04/15 01:12:56;;;;;;;3.50;1.00;;;;;;;12.38;62.16;100882.09;5458612;26;20582;-77
2024/04/15 01:15:24;;;;;;;4.03;0.83;;;;;;;12.37;64.40;100846.34;5449600;26;20236;-77
2024/04/15 01:17:50;;;;;;;3.13;1.50;;;;;;;12.37;65.52;100802.72;5450977;26;20996;-77
2024/04/15 01:20:18;;;;;;;2.37;1.10;;;;;;;12.41;64.75;100785.19;5451453;26;20242;-77
2024/04/15 01:22:48;;;;;;;3.97;0.90;;;;;;;12.39;64.93;100776.47;5461652;26;20318;-77
2024/04/15 01:25:19;;;;;;;2.67;0.93;;;;;;;12.38;65.68;100752.06;5454061;26;20237;-77
2024/04/15 01:27:44;;;;;;;4.07;1.00;;;;;;;12.35;65.06;100748.66;5452286;26;20230;-78
2024/04/15 01:30:13;;;;;;;2.17;1.03;;;;;;;12.28;68.01;100719.13;5451194;26;20274;-78
2024/04/15 01:32:38;;;;;;;3.37;1.30;;;;;;;12.24;68.14;100676.44;5451978;26;20318;-78
2024/04/15 01:35:07;;;;;;;3.17;1.00;;;;;;;12.22;69.06;100641.59;5452370;26;20230;-77
2024/04/15 01:37:32;;;;;;;3.30;0.93;;;;;;;12.20;70.18;100604.13;5439486;26;20236;-78
2024/04/15 01:40:00;;;;;;;4.27;0.80;;;;;;;12.19;70.65;100578.88;5452102;26;20282;-78
2024/04/15 01:42:28;;;;;;;3.80;1.20;;;;;;;12.22;70.57;100550.00;5453297;26;20237;-77
2024/04/15 01:44:56;;;;;;;2.90;0.90;;;;;;;12.10;71.05;100538.06;5452240;26;20234;-77
2024/04/15 01:47:22;;;;;;;1.47;1.07;;;;;;;12.11;71.05;100524.09;5450595;26;20277;-78
2024/04/15 01:49:50;;;;;;;1.47;0.97;;;;;;;12.12;70.89;100507.50;5449884;26;20234;-77
2024/04/15 01:52:15;;;;;;;2.13;1.13;;;;;;;12.08;71.50;100508.47;5450519;26;20277;-77
2024/04/15 01:54:45;;;;;;;2.50;1.07;;;;;;;12.07;72.00;100519.84;5448939;26;20622;-77
2024/04/15 01:57:11;;;;;;;3.20;1.10;;;;;;;12.07;71.72;100503.25;5450855;26;20263;-78
2024/04/15 01:59:41;;;;;;;4.87;1.53;;;;;;;12.00;73.35;100481.63;5451567;26;20236;-77
2024/04/15 02:02:07;;;;;;;5.83;1.47;;;;;;;11.98;72.73;100469.50;5451153;26;20715;-77
2024/04/15 02:04:35;;;;;;;3.20;1.43;;;;;;;12.02;71.64;100471.13;5450601;26;20270;-76
2024/04/15 02:07:00;;;;;;;2.43;1.10;;;;;;;11.98;72.75;100466.88;5451420;26;20622;-77
2024/04/15 02:09:28;;;;;;;3.90;1.10;;;;;;;11.95;73.90;100449.47;5450279;26;20305;-77
2024/04/15 02:11:53;;;;;;;2.80;1.10;;;;;;;11.90;73.74;100428.69;5451382;26;20269;-77
2024/04/15 02:14:21;;;;;;;3.13;1.40;;;;;;;11.97;73.65;100425.91;5450132;26;20233;-77
2024/04/15 02:16:49;;;;;;;1.27;1.17;;;;;;;11.97;74.21;100400.63;5451163;26;20272;-77
2024/04/15 02:19:17;;;;;;;4.73;1.23;;;;;;;11.95;74.19;100388.47;5451657;26;20250;-77
2024/04/15 02:21:43;;;;;;;5.47;1.23;;;;;;;11.94;75.81;100364.06;5451295;26;20276;-78
2024/04/15 02:24:13;;;;;;;2.87;1.10;;;;;;;11.89;75.12;100345.88;5450711;26;20233;-77
2024/04/15 02:26:38;;;;;;;3.17;1.30;;;;;;;11.94;75.15;100345.75;5459094;26;20233;-78
2024/04/15 02:29:06;;;;;;;1.13;1.03;;;;;;;11.97;75.47;100331.72;5457351;26;20288;-77
2024/04/15 02:31:32;;;;;;;2.47;1.47;;;;;;;11.86;75.49;100318.91;5451498;26;20942;-77
2024/04/15 02:34:02;;;;;;;2.77;1.43;;;;;;;11.76;76.74;100293.91;5450614;26;20241;-77
2024/04/15 02:36:28;;;;;;;2.03;1.00;;;;;;;11.71;77.65;100268.75;5451099;26;20232;-77
2024/04/15 02:38:56;;;;;;;3.00;1.70;;;;;;;11.80;77.24;100258.94;5449637;26;20643;-77
2024/04/15 02:41:21;;;;;;;1.87;1.23;;;;;;;11.87;76.99;100253.50;5450486;26;20230;-77
2024/04/15 02:43:49;;;;;;;4.60;1.60;;;;;;;11.89;77.01;100230.81;5450625;26;20746;-77
2024/04/15 02:46:16;;;;;;;2.80;1.30;;;;;;;11.82;77.59;100226.59;5449987;26;20670;-77
2024/04/15 02:48:44;;;;;;;2.43;1.47;;;;;;;11.80;77.72;100209.25;5455015;26;20583;-77
2024/04/15 02:51:12;;;;;;;1.57;1.33;;;;;;;11.87;77.10;100210.78;5454274;26;20229;-77
2024/04/15 02:53:40;;;;;;;2.07;1.10;;;;;;;11.76;78.42;100198.00;5449942;26;20256;-77
2024/04/15 02:56:07;;;;;;;2.50;1.20;;;;;;;11.72;79.02;100176.31;5449669;26;20295;-77
2024/04/15 02:58:35;;;;;;;3.63;1.40;;;;;;;11.69;79.45;100160.72;5448984;26;20226;-77
2024/04/15 03:01:00;;;;;;;3.27;1.23;;;;;;;11.67;79.74;100156.41;5448805;26;20273;-77
2024/04/15 03:03:28;;;;;;;3.47;1.50;;;;;;;11.66;79.92;100146.88;5448931;26;20728;-77
2024/04/15 03:05:54;;;;;;;3.03;1.17;;;;;;;11.73;78.52;100145.78;5448782;26;20275;-77
2024/04/15 03:08:24;;;;;;;1.97;1.10;;;;;;;11.71;79.11;100147.59;5447173;26;20713;-77
2024/04/15 03:10:50;;;;;;;3.77;1.23;;;;;;;11.72;78.48;100151.94;5448348;26;20234;-77
2024/04/15 03:13:18;;;;;;;2.87;1.50;;;;;;;11.70;77.32;100170.25;5450763;26;20271;-77
2024/04/15 03:15:52;;;;;;;3.67;1.37;;;;;;;11.63;77.48;100183.53;5451020;26;20264;-77
2024/04/15 03:18:20;;;;;;;1.97;1.30;;;;;;;11.67;77.04;100188.66;5453644;26;20249;-77
2024/04/15 03:20:45;;;;;;;4.47;1.50;;;;;;;11.68;76.76;100192.13;5454221;26;20237;-77
2024/04/15 03:23:14;;;;;;;3.27;1.27;;;;;;;11.68;76.02;100206.06;5453207;26;20782;-77
2024/04/15 03:25:42;;;;;;;3.63;1.50;;;;;;;11.71;76.38;100213.84;5453188;26;20305;-77
2024/04/15 03:28:10;;;;;;;2.63;1.43;;;;;;;11.63;76.24;100220.16;5453210;26;20583;-77
2024/04/15 03:30:35;;;;;;;2.73;1.27;;;;;;;11.56;75.81;100216.00;5453330;26;20297;-77
2024/04/15 03:33:04;;;;;;;2.70;1.50;;;;;;;11.54;75.88;100226.50;5453944;26;20233;-77
2024/04/15 03:35:29;;;;;;;3.27;1.40;;;;;;;11.51;77.04;100206.50;5452588;26;20262;-77
2024/04/15 03:37:57;;;;;;;2.53;1.50;;;;;;;11.57;76.47;100205.47;5452647;26;20309;-77
2024/04/15 03:40:25;;;;;;;3.07;1.20;;;;;;;11.60;77.25;100191.50;5452444;26;20233;-77
2024/04/15 03:42:56;;;;;;;2.23;1.40;;;;;;;11.64;78.05;100173.06;5463011;26;20229;-77
2024/04/15 03:45:21;;;;;;;1.60;1.47;;;;;;;11.58;77.90;100161.91;5456787;26;20288;-77
2024/04/15 03:47:49;;;;;;;3.57;1.80;;;;;;;11.64;77.47;100151.28;5452831;26;20230;-78
2024/04/15 03:50:17;;;;;;;2.03;1.37;;;;;;;11.62;78.19;100137.41;5452095;26;20277;-77
2024/04/15 03:52:42;;;;;;;2.13;1.30;;;;;;;11.64;78.29;100133.00;5453471;26;20237;-77
2024/04/15 03:55:10;;;;;;;3.33;1.30;;;;;;;11.65;78.49;100116.38;5453189;26;20611;-77
2024/04/15 03:57:36;;;;;;;3.13;1.70;;;;;;;11.65;78.37;100121.63;5454372;26;20226;-77
2024/04/15 04:00:08;;;;;;;4.23;1.50;;;;;;;11.65;78.55;100109.38;5453695;26;20600;-78
2024/04/15 04:02:33;;;;;;;2.23;1.57;;;;;;;11.65;78.33;100101.53;5452588;26;20233;-78
2024/04/15 04:05:01;;;;;;;3.37;1.70;;;;;;;11.53;78.83;100096.69;5453645;26;20578;-77
2024/04/15 04:07:27;;;;;;;2.20;1.50;;;;;;;11.56;78.65;100086.16;5453021;26;20278;-77
2024/04/15 04:09:55;;;;;;;1.93;1.60;;;;;;;11.57;79.26;100080.00;5453031;26;20286;-77
2024/04/15 04:12:21;;;;;;;1.93;1.50;;;;;;;11.62;78.64;100090.34;5453708;26;20230;-77
2024/04/15 04:14:49;;;;;;;3.00;1.83;;;;;;;11.61;79.13;100083.38;5453892;26;20271;-76
2024/04/15 04:17:17;;;;;;;3.63;2.37;;;;;;;11.60;78.21;100074.69;5452236;26;20728;-77
2024/04/15 04:19:44;;;;;;;3.23;2.80;;;;;;;11.69;77.35;100086.63;5452252;26;20285;-76
2024/04/15 04:22:10;;;;;;;2.53;2.33;;;;;;;11.61;77.46;100110.38;5452550;26;20230;-76
2024/04/15 04:24:38;;;;;;;4.97;3.17;;;;;;;11.62;77.94;100112.09;5450393;26;20621;-76
2024/04/15 04:27:04;;;;;;;3.40;3.10;;;;;;;11.57;76.58;100107.91;5448956;26;20273;-77
2024/04/15 04:29:35;;;;;;;6.57;3.90;;;;;;;11.63;77.04;100110.34;5449684;26;20241;-76
2024/04/15 04:32:00;;;;;;;3.67;3.37;;;;;;;11.70;77.12;100112.75;5449975;26;20783;-76
2024/04/15 04:34:32;;;;;;;2.90;2.70;;;;;;;11.65;77.61;100109.38;5450731;26;20234;-76
2024/04/15 04:36:58;;;;;;;4.27;3.80;;;;;;;11.69;77.10;100107.56;5450655;26;20703;-76
2024/04/15 04:39:26;;;;;;;3.83;3.37;;;;;;;11.44;77.23;100110.03;5449796;26;20330;-76
2024/04/15 04:41:52;;;;;;;4.33;3.47;;;;;;;11.56;77.76;100104.44;5450570;26;20774;-76
2024/04/15 04:44:20;;;;;;;3.67;3.37;;;;;;;11.67;76.06;100117.19;5451255;26;20241;-76
2024/04/15 04:46:48;;;;;;;4.03;3.47;;;;;;;11.59;77.87;100100.88;5452028;26;20234;-76
2024/04/15 04:49:17;;;;;;;4.03;3.73;;;;;;;11.64;77.90;100101.63;5452195;26;20276;-76
2024/04/15 04:51:45;;;;;;;4.03;3.50;;;;;;;11.66;77.77;100100.66;5451775;26;20236;-76
2024/04/15 04:54:15;;;;;;;5.07;3.53;;;;;;;11.67;78.00;100091.06;5451324;26;20771;-77
2024/04/15 04:56:40;;;;;;;4.97;4.30;;;;;;;11.67;78.27;100088.44;5452040;26;20264;-76
2024/04/15 04:59:08;;;;;;;4.47;4.07;;;;;;;11.48;79.16;100085.50;5451506;26;20230;-76
2024/04/15 05:01:34;;;;;;;5.13;4.30;;;;;;;11.60;78.78;100069.47;5450399;26;20263;-76
2024/04/15 05:04:02;;;;;;;5.00;4.50;;;;;;;11.65;78.86;100061.47;5459981;26;20687;-77
2024/04/15 05:06:27;;;;;;;5.47;4.93;;;;;;;11.70;78.29;100054.38;5456320;26;20229;-77
2024/04/15 05:08:58;;;;;;;5.57;4.87;;;;;;;11.75;78.61;100055.06;5450888;26;20230;-76
2024/04/15 05:11:23;;;;;;;5.37;4.87;;;;;;;11.76;79.11;100054.19;5450916;26;20229;-76
2024/04/15 05:13:51;;;;;;;6.20;5.00;;;;;;;11.77;78.90;100058.50;5451209;26;20280;-75
2024/04/15 05:16:17;;;;;;;11.40;6.03;;;;;;;11.47;79.40;100057.66;5449397;26;20268;-77
2024/04/15 05:18:45;;;;;;;6.13;5.03;;;;;;;11.63;79.25;100042.38;5452222;26;20226;-76
2024/04/15 05:21:12;;;;;;;5.80;5.20;;;;;;;11.73;78.47;100036.84;5451576;26;20282;-76
2024/04/15 05:23:41;;;;;;;5.77;5.27;;;;;;;11.72;78.92;100036.88;5449709;26;20229;-76
2024/04/15 05:26:09;;;;;;;6.03;5.63;;;;;;;11.45;80.24;100033.31;5451582;26;20272;-77
2024/04/15 05:28:37;;;;;;;6.30;5.70;;;;;;;11.55;80.39;100005.16;5450924;26;20233;-78
2024/04/15 05:31:03;;;;;;;6.50;5.67;;;;;;;11.66;79.58;100006.53;5451816;26;20238;-78
2024/04/15 05:33:41;;;;;;;7.10;6.20;;;;;;;11.76;79.27;100009.72;5468155;26;20262;-79
2024/04/15 05:36:07;;;;;;;5.93;5.43;;;;;;;11.85;79.20;100019.91;5452548;26;20269;-78
2024/04/15 05:38:35;;;;;;;6.07;5.57;;;;;;;11.86;79.30;100011.16;5453979;26;20855;-79
2024/04/15 05:41:01;;;;;;;6.88;6.38;;;;;;;11.89;79.04;100016.34;5452500;26;20514;-78
2024/04/15 05:43:31;;;;;;;6.00;5.60;;;;;;;11.61;79.72;100004.97;5450738;26;20234;-78
2024/04/15 05:45:57;;;;;;;6.43;6.03;;;;;;;11.62;79.89;99996.22;5442959;26;20262;-76
2024/04/15 05:48:25;;;;;;;6.50;5.97;;;;;;;11.78;79.47;100000.09;5462973;26;20273;-77
2024/04/15 05:50:53;;;;;;;6.43;5.97;;;;;;;11.90;78.60;100004.94;5463158;26;20286;-78
2024/04/15 05:53:21;;;;;;;7.07;6.37;;;;;;;11.99;78.24;100021.25;5490164;26;20283;-76
2024/04/15 05:55:47;;;;;;;6.63;6.03;;;;;;;12.03;78.71;100023.75;5453259;26;20794;-78
2024/04/15 05:58:16;;;;;;;6.40;5.80;;;;;;;12.08;78.94;100020.97;5451386;26;20278;-78
2024/04/15 06:00:44;;;;;;;7.80;6.17;;;;;;;12.09;79.39;100000.00;5449722;26;20238;-77
2024/04/15 06:03:12;;;;;;;6.63;6.07;;;;;;;12.14;78.21;100012.94;5451709;26;20249;-78
2024/04/15 06:05:40;;;;;;;6.53;5.93;;;;;;;11.80;78.30;100032.28;5449981;26;20276;-77
2024/04/15 06:08:08;;;;;;;8.10;7.23;;;;;;;11.75;78.78;100022.84;5450480;26;20238;-78
2024/04/15 06:10:34;;;;;;;6.87;6.27;;;;;;;11.83;78.70;100018.22;5450543;26;20305;-78
2024/04/15 06:13:02;;;;;;;7.63;7.00;;;;;;;11.35;79.35;100014.44;5449015;26;20234;-77
2024/04/15 06:15:28;;;;;;;7.60;6.90;;;;;;;11.63;79.21;99996.16;5464884;26;20259;-78
2024/04/15 06:17:59;;;;;;;6.63;6.13;;;;;;;11.67;79.18;99991.69;5451435;26;20234;-77
2024/04/15 06:20:24;;;;;;;6.70;6.20;;;;;;;11.48;79.76;100000.13;5451812;26;20280;-77
2024/04/15 06:22:52;;;;;;;7.00;6.30;;;;;;;11.56;79.48;99976.34;5450816;26;20230;-76
2024/04/15 06:25:17;;;;;;;6.67;6.17;;;;;;;11.50;78.89;99985.25;5451224;26;20264;-78
2024/04/15 06:27:45;;;;;;;5.93;5.50;;;;;;;11.46;80.46;99960.09;5449768;26;20748;-77
2024/04/15 06:30:11;;;;;;;7.50;6.80;;;;;;;11.27;81.10;99936.25;5452357;26;20576;-77
2024/04/15 06:32:39;;;;;;;6.93;6.33;;;;;;;10.89;81.12;99932.16;5452643;26;20272;-78
2024/04/15 06:35:07;;;;;;;8.50;7.73;;;;;;;11.13;82.04;99883.59;5450057;26;20229;-78
2024/04/15 06:37:35;;;;;;;7.63;6.23;;;;;;;11.21;81.11;99891.19;5451397;26;20272;-77
2024/04/15 06:40:01;;;;;;;6.90;6.40;;;;;;;11.42;81.67;99879.22;5450417;26;20272;-77
2024/04/15 06:42:31;;;;;;;7.70;7.00;;;;;;;11.59;80.34;99897.81;5464930;26;20347;-77
2024/04/15 06:44:56;;;;;;;7.03;6.53;;;;;;;11.52;79.78;99915.47;5441629;26;21057;-78
2024/04/15 06:47:25;;;;;;;7.30;6.67;;;;;;;11.61;80.16;99903.84;5454352;26;20238;-78
2024/04/15 06:49:50;;;;;;;7.13;6.53;;;;;;;11.71;80.10;99904.41;5454531;26;20340;-77
2024/04/15 06:52:21;;;;;;;6.90;6.40;;;;;;;11.88;78.72;99924.81;5454770;26;20659;-78
2024/04/15 06:54:46;;;;;;;6.50;5.90;;;;;;;12.03;79.18;99913.00;5454438;26;20233;-77
2024/04/15 06:57:17;;;;;;;6.47;5.87;;;;;;;12.17;78.30;99931.72;5454944;26;20297;-78
2024/04/15 06:59:44;;;;;;;6.40;5.50;;;;;;;12.19;77.61;99949.97;5455296;26;20587;-77
2024/04/15 07:02:13;;;;;;;6.30;5.70;;;;;;;12.29;77.66;99954.88;5454028;26;20275;-78
2024/04/15 07:04:39;;;;;;;6.20;5.63;;;;;;;12.34;77.50;99970.41;5454767;26;20272;-77
2024/04/15 07:07:07;;;;;;;6.80;6.10;;;;;;;12.34;76.84;99977.41;5454474;26;20225;-78
2024/04/15 07:09:36;;;;;;;7.03;6.43;;;;;;;12.21;76.50;99997.88;5454605;26;20233;-77
2024/04/15 07:12:05;;;;;;;6.40;5.90;;;;;;;12.25;76.18;99992.50;5462923;26;20240;-77
2024/04/15 07:14:30;;;;;;;7.07;5.70;;;;;;;11.92;75.60;100016.22;5459502;26;20234;-76
2024/04/15 07:16:58;;;;;;;5.90;5.40;;;;;;;11.83;75.94;100008.66;5455155;26;20229;-77
2024/04/15 07:19:24;;;;;;;6.33;5.73;;;;;;;12.06;75.35;100002.72;5457301;26;20284;-76
2024/04/15 07:21:52;;;;;;;7.10;5.90;;;;;;;12.05;75.16;100021.06;5457254;26;20728;-76
2024/04/15 07:24:17;;;;;;;7.10;6.00;;;;;;;11.81;75.04;100023.50;5452935;26;20226;-75
2024/04/15 07:26:47;;;;;;;6.57;6.00;;;;;;;12.04;75.16;100014.13;5454235;26;20267;-77
2024/04/15 07:29:13;;;;;;;7.23;6.70;;;;;;;11.78;74.65;100036.69;5453577;26;20233;-77
2024/04/15 07:31:41;;;;;;;7.37;6.77;;;;;;;11.59;75.38;100030.28;5454090;26;20276;-76
2024/04/15 07:34:09;;;;;;;7.50;6.53;;;;;;;11.75;75.90;100013.22;5453059;26;20338;-77
2024/04/15 07:36:38;;;;;;;7.00;6.40;;;;;;;11.37;77.01;100012.63;5453051;26;20249;-76
2024/04/15 07:39:03;;;;;;;7.23;6.63;;;;;;;11.08;78.32;99956.88;5451287;26;20230;-75
2024/04/15 07:41:31;;;;;;;7.23;6.63;;;;;;;11.62;77.96;99934.34;5452631;26;20276;-75
2024/04/15 07:43:59;;;;;;;6.90;6.33;;;;;;;11.77;77.00;99929.53;5451897;26;20276;-75
2024/04/15 07:46:27;;;;;;;7.07;6.27;;;;;;;11.76;77.28;99927.81;5465635;26;20586;-75
2024/04/15 07:48:53;;;;;;;7.93;7.07;;;;;;;11.63;75.80;99946.50;5453151;26;20229;-75
2024/04/15 07:51:21;;;;;;;6.77;6.17;;;;;;;11.73;76.21;99952.28;5452189;26;20807;-75
2024/04/15 07:53:47;;;;;;;6.43;5.90;;;;;;;11.84;76.10;99954.59;5451324;26;20277;-75
2024/04/15 07:56:15;;;;;;;7.03;6.47;;;;;;;11.83;75.96;99945.00;5467180;26;20241;-76
2024/04/15 07:58:40;;;;;;;6.47;5.87;;;;;;;11.84;75.85;99949.34;5449869;26;20272;-76
2024/04/15 08:01:11;;;;;;;6.33;5.80;;;;;;;11.92;76.46;99937.75;5452864;26;20237;-76
2024/04/15 08:03:36;;;;;;;6.03;5.50;;;;;;;12.22;75.80;99936.81;5452883;26;20400;-76
2024/04/15 08:06:05;;;;;;;6.57;5.97;;;;;;;12.05;75.73;99943.47;5452413;26;20229;-75
2024/04/15 08:08:30;;;;;;;7.33;6.70;;;;;;;11.77;76.82;99929.53;5452560;26;20234;-75
2024/04/15 08:10:59;;;;;;;7.80;7.30;;;;;;;11.80;77.53;99900.69;5452717;26;20276;-75
2024/04/15 08:13:24;;;;;;;8.23;7.53;;;;;;;12.02;77.35;99885.16;5453243;26;20272;-77
2024/04/15 08:15:53;;;;;;;8.27;7.50;;;;;;;12.21;76.51;99887.97;5452296;26;20225;-76
2024/04/15 08:18:21;;;;;;;9.07;8.37;;;;;;;12.35;76.10;99904.06;5453807;26;20269;-77
2024/04/15 08:20:55;;;;;;;9.70;8.43;;;;;;;12.07;76.90;99907.63;5453015;26;20317;-76
2024/04/15 08:23:21;;;;;;;10.33;9.60;;;;;;;11.95;76.66;99899.34;5452442;26;20263;-76
2024/04/15 08:25:53;;;;;;;11.70;10.80;;;;;;;12.10;75.70;99891.81;5453061;26;20529;-76
2024/04/15 08:28:19;;;;;;;9.90;9.20;;;;;;;12.31;75.11;99913.78;5452719;26;20261;-76
2024/04/15 08:30:47;;;;;;;11.30;10.33;;;;;;;11.90;74.75;99941.34;5454210;26;20289;-76
2024/04/15 08:33:13;;;;;;;10.13;9.43;;;;;;;12.13;74.55;99930.13;5452486;26;20610;-76
2024/04/15 08:35:43;;;;;;;10.93;10.10;;;;;;;12.05;74.32;99933.00;5451650;26;20234;-77
2024/04/15 08:38:09;;;;;;;10.23;9.33;;;;;;;12.27;74.17;99935.75;5451440;26;20722;-76
2024/04/15 08:40:37;;;;;;;9.77;8.77;;;;;;;12.30;72.32;99963.56;5452348;26;20238;-76
2024/04/15 08:43:03;;;;;;;7.97;7.47;;;;;;;12.24;69.71;100016.09;5452355;26;20268;-76
2024/04/15 08:45:32;;;;;;;8.33;7.63;;;;;;;12.03;67.35;100083.03;5451781;26;20230;-76
2024/04/15 08:47:58;;;;;;;10.37;7.20;;;;;;;12.15;67.91;100111.47;5451581;26;20583;-76
2024/04/15 08:50:27;;;;;;;7.80;7.10;;;;;;;12.30;69.07;100117.97;5451956;26;20241;-75
2024/04/15 08:52:56;;;;;;;7.93;7.23;;;;;;;12.33;69.74;100115.28;5451595;26;20247;-75
2024/04/15 08:55:25;;;;;;;8.00;7.27;;;;;;;12.52;69.45;100099.81;5451889;26;20329;-76
2024/04/15 08:57:52;;;;;;;7.97;7.13;;;;;;;12.68;68.60;100102.78;5452345;26;20716;-77
2024/04/15 09:00:22;;;;;;;7.57;6.97;;;;;;;12.65;67.49;100111.59;5451808;26;20245;-76
2024/04/15 09:02:50;;;;;;;9.80;6.33;;;;;;;12.62;64.21;100165.84;5467572;26;20225;-77
2024/04/15 09:05:19;;;;;;;7.70;5.53;;;;;;;12.63;63.52;100217.31;5451624;26;20234;-76
2024/04/15 09:07:44;;;;;;;7.53;6.23;;;;;;;12.52;64.11;100239.44;5452007;26;20692;-76
2024/04/15 09:10:15;;;;;;;8.07;6.10;;;;;;;12.49;65.26;100234.31;5449877;26;20234;-77
2024/04/15 09:12:42;;;;;;;7.13;6.43;;;;;;;12.54;63.87;100265.56;5451899;26;20275;-78
2024/04/15 09:15:12;;;;;;;8.80;6.33;;;;;;;12.63;63.74;100275.78;5451101;26;20242;-77
2024/04/15 09:17:38;;;;;;;8.90;7.23;;;;;;;12.46;63.12;100270.19;5451552;26;20276;-77
2024/04/15 09:20:07;;;;;;;7.07;5.73;;;;;;;12.76;63.56;100275.41;5451415;26;20289;-76
2024/04/15 09:22:33;;;;;;;10.17;6.63;;;;;;;12.90;62.00;100284.56;5451338;26;20234;-76
2024/04/15 09:25:02;;;;;;;6.60;6.00;;;;;;;12.77;63.36;100305.94;5450786;26;20244;-76
2024/04/15 09:27:31;;;;;;;6.70;6.00;;;;;;;12.60;62.84;100315.13;5451556;26;20246;-76
2024/04/15 09:30:00;;;;;;;7.37;5.83;;;;;;;12.24;62.28;100319.66;5451075;26;20778;-75
2024/04/15 09:32:26;;;;;;;7.77;6.73;;;;;;;12.33;63.27;100316.81;5451312;26;20233;-77
2024/04/15 09:34:56;;;;;;;7.40;6.67;;;;;;;12.36;62.75;100284.44;5450857;26;20272;-76
2024/04/15 09:37:21;;;;;;;7.77;6.47;;;;;;;12.42;62.16;100285.09;5451552;26;20235;-77
2024/04/15 09:39:50;;;;;;;8.70;6.80;;;;;;;12.38;61.94;100280.88;5451413;26;20680;-77
2024/04/15 09:42:17;;;;;;;6.70;6.10;;;;;;;12.39;62.50;100273.88;5451391;26;20280;-77
2024/04/15 09:44:49;;;;;;;10.53;5.97;;;;;;;12.61;62.55;100250.56;5450672;26;20716;-76
2024/04/15 09:47:15;;;;;;;6.27;5.67;;;;;;;12.76;60.71;100254.44;5451205;26;20225;-77
2024/04/15 09:49:44;;;;;;;6.87;6.17;;;;;;;12.83;59.61;100272.53;5466372;26;20294;-76
2024/04/15 09:52:19;;;;;;;6.73;6.03;;;;;;;13.16;60.75;100282.00;5451679;26;20230;-78
2024/04/15 09:54:48;;;;;;;7.30;6.27;;;;;;;13.02;61.03;100285.06;5450010;26;20275;-77
2024/04/15 09:57:18;;;;;;;6.60;5.90;;;;;;;13.34;59.90;100276.22;5451051;26;20226;-77
2024/04/15 09:59:55;;;;;;;6.80;5.73;;;;;;;13.36;57.88;100304.97;5450605;26;20255;-76
2024/04/15 10:02:27;;;;;;;8.63;5.03;;;;;;;13.24;55.59;100359.50;5460932;26;20765;-76
2024/04/15 10:05:01;;;;;;;5.23;4.73;;;;;;;13.19;54.60;100397.25;5454425;26;20268;-77
2024/04/15 10:07:27;;;;;;;8.13;5.30;;;;;;;13.38;55.78;100411.53;5451084;26;20295;-76
2024/04/15 10:09:56;;;;;;;8.47;5.77;;;;;;;13.56;55.69;100412.72;5450801;26;20241;-76
2024/04/15 10:12:22;;;;;;;6.63;4.70;;;;;;;13.32;55.17;100427.47;5451101;26;20612;-76
2024/04/15 10:14:53;;;;;;;5.73;5.13;;;;;;;13.60;55.32;100424.84;5450221;26;20595;-76
2024/04/15 10:17:19;;;;;;;5.73;5.07;;;;;;;13.94;57.05;100407.16;5450484;26;20268;-76
2024/04/15 10:19:49;;;;;;;4.83;4.50;;;;;;;14.11;56.14;100381.16;5451867;26;20242;-79
2024/04/15 10:22:15;;;;;;;5.53;4.90;;;;;;;14.33;55.79;100388.28;5452281;26;20276;-78
2024/04/15 10:24:44;;;;;;;5.60;4.97;;;;;;;14.37;55.64;100385.53;5466715;26;20303;-78
2024/04/15 10:27:11;;;;;;;6.83;5.77;;;;;;;14.55;55.45;100385.75;5454171;26;20230;-79
2024/04/15 10:29:41;;;;;;;6.63;5.60;;;;;;;14.59;55.34;100380.38;5451562;26;20273;-77
2024/04/15 10:32:13;;;;;;;5.77;5.17;;;;;;;14.54;53.65;100384.91;5450712;26;20238;-78
2024/04/15 10:34:44;;;;;;;8.90;5.80;;;;;;;14.48;55.24;100400.88;5451980;26;20683;-77
2024/04/15 10:37:11;;;;;;;5.77;5.27;;;;;;;14.48;53.06;100401.72;5437237;26;20230;-75
2024/04/15 10:39:46;;;;;;;5.83;5.20;;;;;;;14.47;53.16;100435.97;5451647;26;20250;-78
2024/04/15 10:42:12;;;;;;;5.93;4.70;;;;;;;14.34;51.39;100450.41;5452034;26;20243;-78
2024/04/15 10:44:40;;;;;;;5.90;5.23;;;;;;;14.05;52.61;100482.00;5450898;26;20368;-77
2024/04/15 10:47:05;;;;;;;6.43;4.90;;;;;;;13.98;52.02;100475.22;5453305;26;20359;-78
2024/04/15 10:49:37;;;;;;;6.00;5.03;;;;;;;14.19;53.23;100460.53;5451208;26;20667;-78
2024/04/15 10:52:03;;;;;;;7.47;5.47;;;;;;;14.33;52.61;100439.06;5451006;26;20234;-79
2024/04/15 10:54:34;;;;;;;5.37;4.87;;;;;;;14.20;51.41;100456.13;5450039;26;20290;-78
2024/04/15 10:57:00;;;;;;;4.90;4.40;;;;;;;14.56;52.20;100446.16;5451351;26;20233;-77
2024/04/15 10:59:28;;;;;;;4.27;3.70;;;;;;;14.47;50.67;100462.22;5450924;26;20352;-78
2024/04/15 11:01:54;;;;;;;4.97;3.60;;;;;;;14.78;50.65;100454.13;5451553;26;20230;-77
2024/04/15 11:04:23;;;;;;;3.83;3.30;;;;;;;14.35;48.17;100513.41;5448294;26;20753;-77
2024/04/15 11:06:50;;;;;;;5.63;3.70;;;;;;;14.38;49.19;100526.41;5450576;26;20231;-78
2024/04/15 11:09:20;;;;;;;4.90;3.67;;;;;;;14.43;49.01;100531.50;5449356;26;20369;-77
2024/04/15 11:11:45;;;;;;;4.07;3.67;;;;;;;14.48;48.74;100529.59;5450200;26;20277;-77
2024/04/15 11:14:14;;;;;;;5.13;4.20;;;;;;;14.86;49.47;100523.03;5450358;26;20971;-78
2024/04/15 11:16:43;;;;;;;3.50;3.20;;;;;;;15.09;49.32;100506.44;5451518;26;20750;-79
2024/04/15 11:19:15;;;;;;;5.23;3.43;;;;;;;14.95;47.85;100499.97;5449709;26;20314;-78
2024/04/15 11:21:40;;;;;;;5.87;3.00;;;;;;;15.38;48.71;100498.38;5450772;26;20740;-77
2024/04/15 11:24:11;;;;;;;4.33;2.70;;;;;;;15.41;47.18;100541.22;5449684;26;20271;-78
2024/04/15 11:26:38;;;;;;;3.33;2.67;;;;;;;15.35;46.93;100554.59;5451529;26;20235;-79
2024/04/15 11:29:07;;;;;;;5.17;2.83;;;;;;;15.21;47.09;100583.16;5450015;26;20244;-78